createdAt,value
2018-02-18T00:00:57.655Z,-0.59
2018-02-18T00:03:00.127Z,-0.61
2018-02-18T00:05:02.620Z,-0.66
2018-02-18T00:07:05.091Z,-0.66
2018-02-18T00:09:07.593Z,-0.65
2018-02-18T00:11:10.104Z,-0.72
2018-02-18T00:13:12.558Z,-0.66
2018-02-18T00:15:15.039Z,-0.69
2018-02-18T00:17:17.482Z,-0.73
2018-02-18T00:19:19.964Z,-0.75
2018-02-18T00:21:22.478Z,-0.73
2018-02-18T00:23:24.968Z,-0.73
2018-02-18T00:25:27.421Z,-0.70
2018-02-18T00:27:29.947Z,-0.69
2018-02-18T00:29:32.438Z,-0.72
2018-02-18T00:31:34.958Z,-0.74
2018-02-18T00:33:37.442Z,-0.79
2018-02-18T00:35:39.895Z,-0.87
2018-02-18T00:37:42.361Z,-0.89
2018-02-18T00:39:44.828Z,-0.91
2018-02-18T00:41:47.337Z,-0.98
2018-02-18T00:43:49.793Z,-0.96
2018-02-18T00:45:52.303Z,-1.00
2018-02-18T00:47:54.793Z,-0.98
2018-02-18T00:49:57.263Z,-0.98
2018-02-18T00:51:59.743Z,-1.00
2018-02-18T00:54:02.246Z,-1.03
2018-02-18T00:56:04.737Z,-1.04
2018-02-18T00:58:07.199Z,-1.05
2018-02-18T01:00:09.665Z,-0.96
2018-02-18T01:02:12.186Z,-0.96
2018-02-18T01:04:14.729Z,-0.91
2018-02-18T01:06:17.222Z,-0.86
2018-02-18T01:08:19.713Z,-0.87
2018-02-18T01:10:22.219Z,-0.89
2018-02-18T01:12:24.707Z,-0.91
2018-02-18T01:14:27.180Z,-0.86
2018-02-18T01:16:29.842Z,-0.87
2018-02-18T01:18:32.373Z,-0.84
2018-02-18T01:20:34.882Z,-0.80
2018-02-18T01:22:37.339Z,-0.84
2018-02-18T01:24:39.887Z,-0.81
2018-02-18T01:26:42.462Z,-0.86
2018-02-18T01:28:45.000Z,-0.83
2018-02-18T01:30:47.454Z,-0.86
2018-02-18T01:32:49.929Z,-0.84
2018-02-18T01:34:52.417Z,-0.85
2018-02-18T01:36:54.898Z,-0.88
2018-02-18T01:38:57.394Z,-0.86
2018-02-18T01:40:59.939Z,-0.88
2018-02-18T01:43:02.517Z,-0.71
2018-02-18T01:45:04.959Z,-0.77
2018-02-18T01:47:07.458Z,-0.73
2018-02-18T01:49:09.952Z,-0.76
2018-02-18T01:51:12.466Z,-0.86
2018-02-18T01:53:14.934Z,-0.84
2018-02-18T01:55:17.435Z,-0.88
2018-02-18T01:57:19.900Z,-0.89
2018-02-18T01:59:22.361Z,-0.90
2018-02-18T02:01:24.938Z,-0.95
2018-02-18T02:03:27.563Z,-0.90
2018-02-18T02:05:30.042Z,-0.79
2018-02-18T02:07:32.523Z,-0.89
2018-02-18T02:09:35.022Z,-0.95
2018-02-18T02:11:37.481Z,-0.99
2018-02-18T02:13:39.952Z,-0.99
2018-02-18T02:15:42.443Z,-1.01
2018-02-18T02:17:45.082Z,-1.10
2018-02-18T02:19:47.609Z,-1.04
2018-02-18T02:21:50.132Z,-0.99
2018-02-18T02:23:52.618Z,-1.04
2018-02-18T02:25:55.054Z,-1.05
2018-02-18T02:27:57.654Z,-0.96
2018-02-18T02:30:00.089Z,-0.93
2018-02-18T02:32:02.743Z,-0.95
2018-02-18T02:34:05.241Z,-0.96
2018-02-18T02:36:07.733Z,-0.69
2018-02-18T02:38:10.219Z,-0.82
2018-02-18T02:40:12.715Z,-0.86
2018-02-18T02:42:15.177Z,-0.87
2018-02-18T02:44:17.702Z,-0.91
2018-02-18T02:46:20.163Z,-1.00
2018-02-18T02:48:22.679Z,-0.97
2018-02-18T02:50:25.158Z,-1.04
2018-02-18T02:52:27.657Z,-0.91
2018-02-18T02:54:30.184Z,-0.89
2018-02-18T02:56:32.662Z,-0.85
2018-02-18T02:58:35.234Z,-0.89
2018-02-18T03:00:37.745Z,-0.95
2018-02-18T03:02:40.200Z,-0.90
2018-02-18T03:04:42.771Z,-0.91
2018-02-18T03:06:45.282Z,-1.01
2018-02-18T03:08:47.770Z,-0.95
2018-02-18T03:10:50.249Z,-1.02
2018-02-18T03:12:52.740Z,-0.80
2018-02-18T03:14:55.199Z,-0.86
2018-02-18T03:16:57.697Z,-0.87
2018-02-18T03:19:00.190Z,-0.84
2018-02-18T03:21:02.715Z,-0.85
2018-02-18T03:23:05.196Z,-0.91
2018-02-18T03:25:07.710Z,-0.86
2018-02-18T03:27:11.640Z,-0.91
2018-02-18T03:29:14.125Z,-0.91
2018-02-18T03:31:16.594Z,-0.89
2018-02-18T03:33:19.169Z,-0.87
2018-02-18T03:35:21.656Z,-0.80
2018-02-18T03:37:24.217Z,-0.76
2018-02-18T03:39:26.913Z,-0.72
2018-02-18T03:41:29.373Z,-0.69
2018-02-18T03:43:31.939Z,-0.66
2018-02-18T03:45:34.388Z,-0.75
2018-02-18T03:47:36.903Z,-0.84
2018-02-18T03:49:39.415Z,-0.91
2018-02-18T03:51:41.861Z,-0.95
2018-02-18T03:53:44.323Z,-0.97
2018-02-18T03:55:46.866Z,-1.02
2018-02-18T03:57:49.395Z,-1.11
2018-02-18T03:59:51.891Z,-1.15
2018-02-18T04:01:54.381Z,-1.18
2018-02-18T04:03:56.979Z,-1.16
2018-02-18T04:05:59.424Z,-1.09
2018-02-18T04:08:01.962Z,-1.17
2018-02-18T04:10:04.411Z,-1.23
2018-02-18T04:14:23.680Z,-1.02
2018-02-18T04:16:26.135Z,-1.00
2018-02-18T04:18:28.584Z,-0.99
2018-02-18T04:22:39.761Z,-1.06
2018-02-18T04:24:42.209Z,-1.08
2018-02-18T04:26:44.714Z,-0.88
2018-02-18T04:28:47.213Z,-0.88
2018-02-18T04:30:49.704Z,-0.74
2018-02-18T04:32:52.155Z,-0.77
2018-02-18T04:34:54.662Z,-0.83
2018-02-18T04:36:57.106Z,-0.77
2018-02-18T04:38:59.604Z,-0.82
2018-02-18T04:41:02.115Z,-0.83
2018-02-18T04:43:04.579Z,-0.84
2018-02-18T04:45:07.102Z,-0.93
2018-02-18T04:47:09.670Z,-0.97
2018-02-18T04:49:12.196Z,-1.01
2018-02-18T04:51:14.643Z,-1.04
2018-02-18T04:53:17.097Z,-1.08
2018-02-18T04:55:19.666Z,-1.12
2018-02-18T04:57:22.138Z,-1.12
2018-02-18T04:59:24.602Z,-1.11
2018-02-18T05:01:27.141Z,-0.98
2018-02-18T05:03:29.599Z,-1.00
2018-02-18T05:05:32.126Z,-0.98
2018-02-18T05:07:34.635Z,-0.90
2018-02-18T05:09:37.169Z,-0.97
2018-02-18T05:11:39.652Z,-1.11
2018-02-18T05:13:42.118Z,-1.23
2018-02-18T05:15:44.616Z,-1.25
2018-02-18T05:17:47.102Z,-1.16
2018-02-18T05:19:49.585Z,-1.23
2018-02-18T05:21:52.038Z,-1.12
2018-02-18T05:23:54.570Z,-1.02
2018-02-18T05:25:57.061Z,-1.02
2018-02-18T05:27:59.571Z,-1.04
2018-02-18T05:30:02.088Z,-1.01
2018-02-18T05:32:04.749Z,-0.89
2018-02-18T05:34:07.261Z,-0.88
2018-02-18T05:36:09.711Z,-0.91
2018-02-18T05:38:12.196Z,-0.94
2018-02-18T05:40:14.684Z,-0.93
2018-02-18T05:42:17.181Z,-0.82
2018-02-18T05:44:19.648Z,-0.82
2018-02-18T05:46:22.152Z,-0.82
2018-02-18T05:48:24.631Z,-0.89
2018-02-18T05:50:27.187Z,-0.84
2018-02-18T05:52:29.781Z,-0.82
2018-02-18T05:54:32.294Z,-0.89
2018-02-18T05:56:34.740Z,-0.73
2018-02-18T05:58:37.239Z,-0.73
2018-02-18T06:00:39.700Z,-0.71
2018-02-18T06:02:42.189Z,-0.74
2018-02-18T06:04:44.665Z,-0.74
2018-02-18T06:06:47.173Z,-0.74
2018-02-18T06:08:49.621Z,-0.52
2018-02-18T06:10:52.120Z,-0.55
2018-02-18T06:12:54.615Z,-0.54
2018-02-18T06:14:57.205Z,-0.58
2018-02-18T06:16:59.701Z,-0.64
2018-02-18T06:19:02.191Z,-0.66
2018-02-18T06:21:04.685Z,-0.62
2018-02-18T06:23:07.172Z,-0.68
2018-02-18T06:25:09.625Z,-0.62
2018-02-18T06:27:12.086Z,-0.69
2018-02-18T06:29:14.566Z,-0.67
2018-02-18T06:31:17.064Z,-0.71
2018-02-18T06:33:19.642Z,-0.68
2018-02-18T06:35:22.155Z,-0.71
2018-02-18T06:37:24.665Z,-0.73
2018-02-18T06:39:27.163Z,-0.75
2018-02-18T06:41:29.626Z,-0.75
2018-02-18T06:43:32.199Z,-0.71
2018-02-18T06:45:34.642Z,-0.64
2018-02-18T06:47:37.147Z,-0.61
2018-02-18T06:49:39.626Z,-0.56
2018-02-18T06:51:42.101Z,-0.56
2018-02-18T06:53:44.593Z,-0.59
2018-02-18T06:55:47.035Z,-0.59
2018-02-18T06:57:49.560Z,-0.52
2018-02-18T06:59:52.122Z,-0.50
2018-02-18T07:01:54.583Z,-0.47
2018-02-18T07:03:57.039Z,-0.50
2018-02-18T07:05:59.574Z,-0.50
2018-02-18T07:08:02.096Z,-0.46
2018-02-18T07:10:04.631Z,-0.42
2018-02-18T07:12:07.085Z,-0.44
2018-02-18T07:14:09.532Z,-0.37
2018-02-18T07:16:12.038Z,-0.32
2018-02-18T07:18:14.498Z,-0.24
2018-02-18T07:20:17.173Z,-0.12
2018-02-18T07:22:19.678Z,-0.06
2018-02-18T07:24:22.272Z,-0.03
2018-02-18T07:26:24.873Z,0.05
2018-02-18T07:28:27.497Z,0.13
2018-02-18T07:30:29.949Z,0.28
2018-02-18T07:32:32.431Z,0.28
2018-02-18T07:34:34.944Z,0.32
2018-02-18T07:36:37.404Z,0.40
2018-02-18T07:38:39.858Z,0.43
2018-02-18T07:40:42.398Z,0.57
2018-02-18T07:42:45.023Z,0.53
2018-02-18T07:44:47.519Z,0.57
2018-02-18T07:46:50.017Z,0.60
2018-02-18T07:48:52.490Z,0.63
2018-02-18T07:50:54.953Z,0.66
2018-02-18T07:52:57.480Z,0.66
2018-02-18T07:54:59.942Z,0.74
2018-02-18T07:57:02.389Z,0.83
2018-02-18T07:59:04.857Z,0.83
2018-02-18T08:01:07.407Z,0.88
2018-02-18T08:03:09.954Z,0.92
2018-02-18T08:05:12.442Z,0.87
2018-02-18T08:07:15.039Z,0.80
2018-02-18T08:09:17.508Z,0.87
2018-02-18T08:11:20.023Z,0.92
2018-02-18T08:13:22.502Z,0.97
2018-02-18T08:15:24.983Z,0.93
2018-02-18T08:17:27.458Z,0.88
2018-02-18T08:19:30.008Z,1.03
2018-02-18T08:21:32.438Z,0.97
2018-02-18T08:23:34.987Z,1.17
2018-02-18T08:25:37.506Z,1.11
2018-02-18T08:27:40.068Z,1.05
2018-02-18T08:29:42.663Z,1.20
2018-02-18T08:31:45.144Z,1.18
2018-02-18T08:33:47.587Z,1.18
2018-02-18T08:35:50.047Z,1.28
2018-02-18T08:37:52.528Z,1.37
2018-02-18T08:39:54.951Z,1.35
2018-02-18T08:41:57.519Z,1.33
2018-02-18T08:44:00.018Z,1.43
2018-02-18T08:46:02.467Z,1.49
2018-02-18T08:48:05.014Z,1.50
2018-02-18T08:50:07.538Z,1.54
2018-02-18T08:52:10.005Z,1.48
2018-02-18T08:54:12.584Z,1.41
2018-02-18T08:56:15.044Z,1.41
2018-02-18T08:58:17.572Z,1.34
2018-02-18T09:00:20.154Z,1.47
2018-02-18T09:02:22.632Z,1.51
2018-02-18T09:04:25.097Z,1.56
2018-02-18T09:06:27.605Z,1.50
2018-02-18T09:08:30.116Z,1.49
2018-02-18T09:10:32.610Z,1.45
2018-02-18T09:12:35.100Z,1.60
2018-02-18T09:14:37.618Z,1.77
2018-02-18T09:16:40.077Z,1.79
2018-02-18T09:18:42.543Z,1.86
2018-02-18T09:20:45.029Z,1.87
2018-02-18T09:22:47.534Z,1.87
2018-02-18T09:24:50.054Z,1.90
2018-02-18T09:26:52.576Z,1.95
2018-02-18T09:28:55.033Z,2.05
2018-02-18T09:30:57.519Z,2.08
2018-02-18T09:33:00.015Z,2.05
2018-02-18T09:35:02.456Z,2.10
2018-02-18T09:37:04.937Z,2.15
2018-02-18T09:39:07.396Z,2.11
2018-02-18T09:41:09.885Z,2.09
2018-02-18T09:43:12.438Z,2.32
2018-02-18T09:45:14.883Z,2.40
2018-02-18T09:47:17.390Z,2.49
2018-02-18T09:49:19.877Z,2.47
2018-02-18T09:51:22.311Z,2.38
2018-02-18T09:53:24.885Z,2.47
2018-02-18T09:55:27.429Z,2.47
2018-02-18T09:57:29.881Z,2.54
2018-02-18T09:59:32.334Z,2.64
2018-02-18T10:01:34.841Z,2.52
2018-02-18T10:03:37.450Z,2.70
2018-02-18T10:05:39.955Z,2.72
2018-02-18T10:07:42.433Z,2.80
2018-02-18T10:09:44.898Z,2.82
2018-02-18T10:11:47.421Z,2.76
2018-02-18T10:13:49.991Z,2.81
2018-02-18T10:15:52.480Z,2.96
2018-02-18T10:17:54.984Z,2.79
2018-02-18T10:19:57.510Z,2.93
2018-02-18T10:21:59.988Z,3.00
2018-02-18T10:24:02.524Z,2.94
2018-02-18T10:26:04.999Z,2.99
2018-02-18T10:28:07.461Z,2.94
2018-02-18T10:30:10.065Z,3.17
2018-02-18T10:32:12.561Z,3.16
2018-02-18T10:34:15.040Z,3.10
2018-02-18T10:36:17.520Z,3.10
2018-02-18T10:38:19.970Z,3.12
2018-02-18T10:40:22.531Z,3.12
2018-02-18T10:42:25.026Z,3.29
2018-02-18T10:44:27.510Z,3.38
2018-02-18T10:46:30.115Z,3.52
2018-02-18T10:48:32.595Z,3.52
2018-02-18T10:50:35.125Z,3.46
2018-02-18T10:52:37.631Z,3.55
2018-02-18T10:54:40.108Z,3.67
2018-02-18T10:56:42.680Z,3.59
2018-02-18T10:58:45.221Z,3.61
2018-02-18T11:00:47.686Z,3.65
2018-02-18T11:02:50.144Z,3.70
2018-02-18T11:04:52.665Z,3.67
2018-02-18T11:06:55.171Z,3.83
2018-02-18T11:08:57.696Z,3.65
2018-02-18T11:11:00.182Z,3.72
2018-02-18T11:13:02.646Z,3.62
2018-02-18T11:15:05.225Z,3.69
2018-02-18T11:17:07.819Z,3.60
2018-02-18T11:19:10.280Z,3.65
2018-02-18T11:21:12.745Z,3.79
2018-02-18T11:23:15.310Z,3.94
2018-02-18T11:25:17.837Z,4.08
2018-02-18T11:27:20.654Z,4.16
2018-02-18T11:29:23.184Z,4.10
2018-02-18T11:31:25.691Z,4.07
2018-02-18T11:33:28.220Z,4.21
2018-02-18T11:35:30.695Z,4.21
2018-02-18T11:37:33.260Z,4.31
2018-02-18T11:39:35.758Z,4.31
2018-02-18T11:41:38.356Z,4.32
2018-02-18T11:43:40.854Z,4.32
2018-02-18T11:45:43.415Z,4.29
2018-02-18T11:47:45.847Z,4.34
2018-02-18T11:49:48.363Z,4.30
2018-02-18T11:51:50.861Z,4.41
2018-02-18T11:53:53.307Z,4.37
2018-02-18T11:55:55.795Z,4.28
2018-02-18T11:57:58.285Z,4.39
2018-02-18T12:00:00.746Z,4.46
2018-02-18T12:02:03.238Z,4.49
2018-02-18T12:04:05.766Z,4.46
2018-02-18T12:06:08.361Z,4.44
2018-02-18T12:08:10.853Z,4.54
2018-02-18T12:10:13.321Z,4.58
2018-02-18T12:12:15.767Z,4.51
2018-02-18T12:14:18.265Z,4.59
2018-02-18T12:16:20.806Z,4.64
2018-02-18T12:18:23.322Z,4.63
2018-02-18T12:20:25.771Z,4.65
2018-02-18T12:22:28.370Z,4.64
2018-02-18T12:24:30.812Z,4.67
2018-02-18T12:26:33.291Z,4.63
2018-02-18T12:28:35.805Z,4.73
2018-02-18T12:30:38.322Z,4.84
2018-02-18T12:32:40.836Z,4.92
2018-02-18T12:34:43.290Z,4.93
2018-02-18T12:36:45.866Z,4.91
2018-02-18T12:38:48.332Z,4.82
2018-02-18T12:40:50.947Z,4.73
2018-02-18T12:42:53.490Z,4.72
2018-02-18T12:44:55.927Z,4.72
2018-02-18T12:46:58.397Z,4.71
2018-02-18T12:49:00.896Z,4.84
2018-02-18T12:51:03.366Z,4.83
2018-02-18T12:53:05.881Z,4.87
2018-02-18T12:55:08.332Z,5.00
2018-02-18T12:57:10.767Z,4.90
2018-02-18T12:59:13.261Z,4.86
2018-02-18T13:01:15.785Z,4.66
2018-02-18T13:03:18.295Z,4.80
2018-02-18T13:05:20.866Z,4.79
2018-02-18T13:07:23.338Z,4.84
2018-02-18T13:09:25.852Z,4.94
2018-02-18T13:11:28.408Z,4.89
2018-02-18T13:13:30.878Z,4.95
2018-02-18T13:15:33.462Z,5.26
2018-02-18T13:17:35.963Z,5.03
2018-02-18T13:19:38.497Z,4.98
2018-02-18T13:21:40.986Z,5.11
2018-02-18T13:23:43.471Z,4.93
2018-02-18T13:25:45.994Z,4.97
2018-02-18T13:27:48.522Z,5.02
2018-02-18T13:29:51.095Z,4.92
2018-02-18T13:31:53.548Z,4.81
2018-02-18T13:33:56.057Z,4.86
2018-02-18T13:35:58.647Z,4.94
2018-02-18T13:38:01.233Z,5.07
2018-02-18T13:40:03.760Z,4.86
2018-02-18T13:42:06.243Z,4.80
2018-02-18T13:44:08.761Z,5.04
2018-02-18T13:46:11.256Z,5.11
2018-02-18T13:48:13.838Z,5.09
2018-02-18T13:50:16.328Z,5.16
2018-02-18T13:52:18.776Z,5.15
2018-02-18T13:54:21.317Z,5.17
2018-02-18T13:56:23.876Z,5.31
2018-02-18T13:58:26.402Z,5.39
2018-02-18T14:00:28.863Z,5.47
2018-02-18T14:02:31.368Z,5.59
2018-02-18T14:04:33.889Z,5.39
2018-02-18T14:06:36.386Z,5.33
2018-02-18T14:08:38.871Z,5.25
2018-02-18T14:10:41.366Z,5.31
2018-02-18T14:12:43.866Z,5.32
2018-02-18T14:14:46.298Z,5.25
2018-02-18T14:16:48.801Z,5.42
2018-02-18T14:18:51.266Z,5.48
2018-02-18T14:20:53.772Z,5.47
2018-02-18T14:22:56.287Z,5.35
2018-02-18T14:24:58.913Z,5.10
2018-02-18T14:27:01.365Z,5.13
2018-02-18T14:29:03.881Z,5.07
2018-02-18T14:31:06.392Z,5.02
2018-02-18T14:33:08.848Z,5.03
2018-02-18T14:35:11.327Z,5.03
2018-02-18T14:37:13.847Z,5.00
2018-02-18T14:39:16.327Z,5.05
2018-02-18T14:41:30.723Z,5.02
2018-02-18T14:43:44.832Z,5.10
2018-02-18T14:45:59.021Z,4.86
2018-02-18T14:48:13.082Z,4.79
2018-02-18T14:50:27.323Z,4.72
2018-02-18T14:52:41.557Z,4.84
2018-02-18T14:57:25.912Z,4.94
2018-02-18T14:59:28.419Z,5.06
2018-02-18T15:01:30.927Z,5.05
2018-02-18T15:03:33.491Z,4.95
2018-02-18T15:05:35.964Z,5.02
2018-02-18T15:07:38.454Z,5.10
2018-02-18T15:09:40.949Z,5.22
2018-02-18T15:11:43.461Z,5.19
2018-02-18T15:13:45.928Z,5.16
2018-02-18T15:15:48.438Z,5.21
2018-02-18T15:17:50.907Z,5.16
2018-02-18T15:19:53.349Z,4.90
2018-02-18T15:21:55.877Z,4.94
2018-02-18T15:23:58.354Z,5.07
2018-02-18T15:26:00.876Z,4.93
2018-02-18T15:28:03.377Z,4.91
2018-02-18T15:30:05.824Z,4.90
2018-02-18T15:32:08.352Z,4.91
2018-02-18T15:34:10.925Z,4.81
2018-02-18T15:36:13.438Z,4.76
2018-02-18T15:38:15.990Z,4.72
2018-02-18T15:40:18.498Z,4.72
2018-02-18T15:42:20.985Z,4.62
2018-02-18T15:44:23.564Z,4.45
2018-02-18T15:46:26.065Z,4.48
2018-02-18T15:48:28.563Z,4.50
2018-02-18T15:50:31.034Z,4.53
2018-02-18T15:52:33.520Z,4.56
2018-02-18T15:54:35.999Z,4.48
2018-02-18T15:56:38.490Z,4.49
2018-02-18T15:58:41.115Z,4.27
2018-02-18T16:00:43.653Z,4.23
2018-02-18T16:02:46.109Z,4.13
2018-02-18T16:04:48.628Z,4.04
2018-02-18T16:06:51.113Z,4.15
2018-02-18T16:08:53.612Z,4.13
2018-02-18T16:10:56.159Z,4.19
2018-02-18T16:12:58.625Z,4.08
2018-02-18T16:15:01.089Z,4.01
2018-02-18T16:17:03.628Z,4.06
2018-02-18T16:19:06.104Z,4.03
2018-02-18T16:21:08.660Z,3.99
2018-02-18T16:23:11.131Z,3.91
2018-02-18T16:25:13.616Z,3.87
2018-02-18T16:27:16.118Z,3.82
2018-02-18T16:29:18.625Z,3.84
2018-02-18T16:31:21.004Z,3.75
2018-02-18T16:33:23.520Z,3.62
2018-02-18T16:35:26.088Z,3.48
2018-02-18T16:37:28.588Z,3.55
2018-02-18T16:39:31.183Z,3.54
2018-02-18T16:41:33.674Z,3.45
2018-02-18T16:43:36.279Z,3.46
2018-02-18T16:45:38.770Z,3.56
2018-02-18T16:47:41.213Z,3.43
2018-02-18T16:49:43.660Z,3.40
2018-02-18T16:51:46.156Z,3.36
2018-02-18T16:53:48.611Z,3.36
2018-02-18T16:55:51.056Z,3.34
2018-02-18T16:57:53.614Z,3.15
2018-02-18T16:59:56.119Z,3.09
2018-02-18T17:01:58.709Z,2.96
2018-02-18T17:04:01.248Z,2.84
2018-02-18T17:06:03.775Z,2.74
2018-02-18T17:08:06.232Z,2.87
2018-02-18T17:10:08.785Z,2.84
2018-02-18T17:12:11.318Z,2.94
2018-02-18T17:14:13.804Z,2.91
2018-02-18T17:16:16.359Z,2.93
2018-02-18T17:18:18.907Z,3.02
2018-02-18T17:20:21.454Z,3.12
2018-02-18T17:22:24.025Z,3.14
2018-02-18T17:24:26.641Z,3.06
2018-02-18T17:26:29.240Z,2.99
2018-02-18T17:28:31.833Z,3.04
2018-02-18T17:30:34.426Z,2.97
2018-02-18T17:32:37.024Z,2.83
2018-02-18T17:34:39.521Z,2.76
2018-02-18T17:36:42.009Z,2.78
2018-02-18T17:38:44.535Z,2.73
2018-02-18T17:40:47.007Z,2.71
2018-02-18T17:42:49.539Z,2.72
2018-02-18T17:44:52.084Z,2.68
2018-02-18T17:46:54.580Z,2.60
2018-02-18T17:48:57.132Z,2.65
2018-02-18T17:50:59.612Z,2.66
2018-02-18T17:53:02.145Z,2.59
2018-02-18T17:55:04.762Z,2.45
2018-02-18T17:57:07.290Z,2.36
2018-02-18T17:59:09.803Z,2.51
2018-02-18T18:01:12.272Z,2.41
2018-02-18T18:03:14.829Z,2.42
2018-02-18T18:05:18.142Z,2.35
2018-02-18T18:07:20.592Z,2.26
2018-02-18T18:09:23.261Z,2.37
2018-02-18T18:11:25.770Z,2.29
2018-02-18T18:13:28.337Z,2.26
2018-02-18T18:15:30.812Z,2.25
2018-02-18T18:17:33.283Z,2.08
2018-02-18T18:19:35.898Z,1.92
2018-02-18T18:21:38.414Z,1.84
2018-02-18T18:23:40.926Z,1.93
2018-02-18T18:25:43.485Z,1.85
2018-02-18T18:27:46.311Z,1.81
2018-02-18T18:29:48.877Z,1.77
2018-02-18T18:31:51.263Z,1.79
2018-02-18T18:33:53.782Z,1.69
2018-02-18T18:35:56.282Z,1.71
2018-02-18T18:37:58.743Z,2.00
2018-02-18T18:40:01.265Z,1.95
2018-02-18T18:42:03.787Z,1.81
2018-02-18T18:44:06.462Z,1.52
2018-02-18T18:46:08.963Z,1.23
2018-02-18T18:48:11.525Z,1.05
2018-02-18T18:50:14.076Z,0.96
2018-02-18T18:52:16.580Z,1.04
2018-02-18T18:54:19.150Z,1.01
2018-02-18T18:56:21.641Z,0.89
2018-02-18T18:58:24.190Z,0.89
2018-02-18T19:00:26.688Z,0.83
2018-02-18T19:02:29.287Z,0.78
2018-02-18T19:04:31.754Z,0.90
2018-02-18T19:06:34.285Z,0.91
2018-02-18T19:08:36.794Z,0.96
2018-02-18T19:10:39.328Z,1.26
2018-02-18T19:12:41.947Z,1.19
2018-02-18T19:14:44.448Z,1.31
2018-02-18T19:16:46.943Z,1.33
2018-02-18T19:18:49.532Z,1.27
2018-02-18T19:20:52.020Z,1.23
2018-02-18T19:22:54.624Z,1.28
2018-02-18T19:24:57.215Z,1.28
2018-02-18T19:26:59.687Z,1.22
2018-02-18T19:29:02.210Z,1.43
2018-02-18T19:31:04.680Z,1.46
2018-02-18T19:33:07.208Z,1.38
2018-02-18T19:35:09.776Z,1.48
2018-02-18T19:37:12.226Z,1.55
2018-02-18T19:39:14.740Z,1.54
2018-02-18T19:41:17.238Z,1.66
2018-02-18T19:43:19.725Z,1.62
2018-02-18T19:45:22.296Z,1.66
2018-02-18T19:47:24.761Z,1.69
2018-02-18T19:49:27.333Z,1.77
2018-02-18T19:51:29.822Z,1.88
2018-02-18T19:53:32.391Z,1.85
2018-02-18T19:55:34.904Z,1.91
2018-02-18T19:57:37.495Z,1.99
2018-02-18T19:59:40.107Z,2.11
2018-02-18T20:01:42.709Z,2.09
2018-02-18T20:03:45.273Z,2.20
2018-02-18T20:05:47.883Z,2.21
2018-02-18T20:07:50.459Z,2.24
2018-02-18T20:09:53.082Z,2.27
2018-02-18T20:11:55.584Z,2.35
2018-02-18T20:13:58.276Z,2.40
2018-02-18T20:16:00.861Z,2.43
2018-02-18T20:18:03.633Z,2.43
2018-02-18T20:20:06.282Z,2.47
2018-02-18T20:22:08.870Z,2.56
2018-02-18T20:24:11.508Z,2.57
2018-02-18T20:26:14.154Z,2.62
2018-02-18T20:28:16.704Z,2.60
2018-02-18T20:30:19.382Z,2.54
2018-02-18T20:32:22.039Z,2.49
2018-02-18T20:34:24.762Z,2.49
2018-02-18T20:36:27.287Z,2.52
2018-02-18T20:38:29.746Z,2.50
2018-02-18T20:40:32.217Z,2.53
2018-02-18T20:42:34.814Z,2.54
2018-02-18T20:44:37.332Z,2.50
2018-02-18T20:46:39.824Z,2.46
2018-02-18T20:48:42.503Z,2.51
2018-02-18T20:50:44.982Z,2.56
2018-02-18T20:52:47.592Z,2.52
2018-02-18T20:54:50.214Z,2.50
2018-02-18T20:56:52.718Z,2.44
2018-02-18T20:58:55.373Z,2.51
2018-02-18T21:00:57.826Z,2.47
2018-02-18T21:03:00.314Z,2.46
2018-02-18T21:05:02.862Z,2.51
2018-02-18T21:07:05.392Z,2.45
2018-02-18T21:09:07.893Z,2.45
2018-02-18T21:11:10.379Z,2.53
2018-02-18T21:13:12.889Z,2.46
2018-02-18T21:15:15.547Z,2.42
2018-02-18T21:17:18.025Z,2.55
2018-02-18T21:19:20.508Z,2.46
2018-02-18T21:21:23.041Z,2.51
2018-02-18T21:23:25.597Z,2.45
2018-02-18T21:25:28.090Z,2.43
2018-02-18T21:27:31.515Z,2.41
2018-02-18T21:29:34.066Z,2.39
2018-02-18T21:31:36.715Z,2.35
2018-02-18T21:33:39.226Z,2.39
2018-02-18T21:35:41.957Z,2.37
2018-02-18T21:37:44.637Z,2.34
2018-02-18T21:39:47.164Z,2.36
2018-02-18T21:41:49.673Z,2.34
2018-02-18T21:43:52.203Z,2.35
2018-02-18T21:45:54.724Z,2.36
2018-02-18T21:47:57.159Z,2.29
2018-02-18T21:49:59.743Z,2.36
2018-02-18T21:52:02.208Z,2.30
2018-02-18T21:54:04.697Z,2.35
2018-02-18T21:56:07.193Z,2.30
2018-02-18T21:58:09.652Z,2.22
2018-02-18T22:00:12.119Z,2.13
2018-02-18T22:02:14.710Z,2.15
2018-02-18T22:04:17.174Z,2.12
2018-02-18T22:06:19.669Z,2.11
2018-02-18T22:08:22.142Z,2.13
2018-02-18T22:10:24.992Z,2.08
2018-02-18T22:12:27.592Z,2.13
2018-02-18T22:14:30.038Z,2.14
2018-02-18T22:16:32.554Z,2.08
2018-02-18T22:18:35.021Z,1.95
2018-02-18T22:20:37.525Z,1.92
2018-02-18T22:22:40.019Z,1.83
2018-02-18T22:24:42.567Z,1.95
2018-02-18T22:26:45.070Z,1.91
2018-02-18T22:28:47.559Z,1.82
2018-02-18T22:30:50.084Z,1.78
2018-02-18T22:32:52.610Z,1.77
2018-02-18T22:34:55.206Z,1.80
2018-02-18T22:36:57.724Z,1.71
2018-02-18T22:39:00.321Z,1.79
2018-02-18T22:41:02.787Z,1.76
2018-02-18T22:43:05.261Z,1.73
2018-02-18T22:45:07.765Z,1.75
2018-02-18T22:47:10.230Z,1.70
2018-02-18T22:49:12.749Z,1.60
2018-02-18T22:51:15.208Z,1.53
2018-02-18T22:53:17.654Z,1.49
2018-02-18T22:55:20.144Z,1.48
2018-02-18T22:57:22.601Z,1.35
2018-02-18T22:59:25.030Z,1.31
2018-02-18T23:01:27.619Z,1.23
2018-02-18T23:03:31.238Z,1.20
2018-02-18T23:05:39.225Z,1.21
2018-02-18T23:07:41.849Z,1.23
2018-02-18T23:09:44.291Z,1.35
2018-02-18T23:11:46.825Z,1.24
2018-02-18T23:13:49.358Z,1.28
2018-02-18T23:15:51.825Z,1.23
2018-02-18T23:17:54.266Z,1.16
2018-02-18T23:19:56.728Z,1.07
2018-02-18T23:21:59.228Z,1.35
2018-02-18T23:24:01.673Z,1.24
2018-02-18T23:26:04.184Z,1.16
2018-02-18T23:28:06.682Z,1.33
2018-02-18T23:30:09.130Z,1.32
2018-02-18T23:32:11.604Z,1.32
2018-02-18T23:34:14.075Z,1.26
2018-02-18T23:36:16.604Z,1.26
2018-02-18T23:38:19.164Z,1.25
2018-02-18T23:40:21.627Z,1.25
2018-02-18T23:42:24.108Z,1.22
2018-02-18T23:44:26.623Z,1.06
2018-02-18T23:46:29.080Z,1.04
2018-02-18T23:48:31.614Z,0.96
2018-02-18T23:50:34.104Z,0.92
2018-02-18T23:52:36.570Z,0.89
2018-02-18T23:54:39.094Z,0.80
2018-02-18T23:56:41.579Z,0.92
2018-02-18T23:58:44.079Z,0.86
